createdAt,value
2022-08-21T00:00:55.734Z,1.55
2022-08-21T00:03:23.564Z,1.00
2022-08-21T00:05:52.791Z,1.13
2022-08-21T00:08:21.386Z,1.35
2022-08-21T00:10:49.888Z,1.50
2022-08-21T00:13:20.568Z,1.58
2022-08-21T00:15:51.178Z,1.30
2022-08-21T00:18:20.158Z,1.30
2022-08-21T00:20:48.796Z,1.45
2022-08-21T00:23:17.210Z,1.75
2022-08-21T00:25:46.147Z,1.77
2022-08-21T00:28:15.040Z,1.35
2022-08-21T00:30:44.301Z,1.83
2022-08-21T00:33:14.324Z,1.60
2022-08-21T00:35:43.854Z,1.83
2022-08-21T00:38:12.145Z,1.73
2022-08-21T00:40:43.718Z,1.60
2022-08-21T00:43:14.182Z,1.30
2022-08-21T00:45:41.894Z,1.50
2022-08-21T00:48:09.887Z,2.15
2022-08-21T00:50:44.013Z,1.80
2022-08-21T00:53:13.117Z,2.10
2022-08-21T00:55:41.990Z,1.92
2022-08-21T00:58:12.962Z,1.70
2022-08-21T05:01:48.460Z,1.98
2022-08-21T05:04:19.951Z,2.28
2022-08-21T05:06:49.506Z,3.13
2022-08-21T05:09:20.070Z,2.58
2022-08-21T05:11:49.682Z,1.77
2022-08-21T05:14:17.744Z,2.47
2022-08-21T05:16:45.784Z,2.03
2022-08-21T05:19:14.820Z,1.70
2022-08-21T05:21:45.828Z,2.03
2022-08-21T05:24:13.557Z,1.80
2022-08-21T05:26:46.362Z,1.83
2022-08-21T05:29:15.562Z,1.80
2022-08-21T05:31:44.235Z,1.90
2022-08-21T05:34:11.948Z,1.95
2022-08-21T05:36:45.517Z,1.88
2022-08-21T05:39:13.461Z,2.15
2022-08-21T05:41:41.034Z,2.90
2022-08-21T05:44:10.579Z,2.08
2022-08-21T05:46:39.509Z,1.48
2022-08-21T05:49:07.812Z,1.70
2022-08-21T05:51:36.176Z,1.75
2022-08-21T05:54:05.145Z,1.33
2022-08-21T05:56:32.782Z,1.80
2022-08-21T05:59:00.455Z,1.65
2022-08-21T06:01:28.770Z,1.85
2022-08-21T06:04:00.031Z,2.33
2022-08-21T06:06:29.241Z,2.47
2022-08-21T06:08:56.818Z,1.70
2022-08-21T06:11:28.862Z,1.80
2022-08-21T06:13:57.164Z,2.28
2022-08-21T06:16:24.990Z,1.50
2022-08-21T06:18:53.040Z,1.95
2022-08-21T06:21:21.163Z,1.63
2022-08-21T06:23:49.076Z,2.35
2022-08-21T06:26:16.879Z,2.03
2022-08-21T06:28:46.000Z,1.75
2022-08-21T06:31:16.163Z,1.73
2022-08-21T06:33:44.310Z,2.03
2022-08-21T06:36:12.153Z,1.60
2022-08-21T06:38:40.254Z,2.20
2022-08-21T06:41:08.939Z,1.70
2022-08-21T06:43:38.009Z,2.50
2022-08-21T06:46:09.284Z,2.08
2022-08-21T06:48:37.535Z,2.28
2022-08-21T06:51:05.444Z,2.13
2022-08-21T06:53:33.469Z,2.90
2022-08-21T06:56:02.701Z,2.25
2022-08-21T06:58:30.944Z,1.80
2022-08-21T07:01:01.342Z,1.95
2022-08-21T07:03:34.015Z,2.15
2022-08-21T07:06:01.655Z,1.85
2022-08-21T07:08:30.060Z,2.08
2022-08-21T07:11:00.400Z,2.10
2022-08-21T07:13:28.770Z,2.15
2022-08-21T07:16:00.277Z,2.35
2022-08-21T07:18:33.325Z,2.05
2022-08-21T07:21:02.595Z,2.88
2022-08-21T07:23:33.730Z,2.15
2022-08-21T07:26:02.292Z,2.20
2022-08-21T07:28:31.024Z,2.25
2022-08-21T07:31:00.610Z,2.70
2022-08-21T07:33:31.343Z,1.75
2022-08-21T07:36:00.558Z,2.80
2022-08-21T07:38:28.273Z,1.83
2022-08-21T07:40:59.742Z,1.70
2022-08-21T07:43:27.775Z,2.70
2022-08-21T07:45:56.268Z,1.63
2022-08-21T07:48:24.576Z,2.35
2022-08-21T07:50:52.891Z,1.60
2022-08-21T07:53:22.346Z,1.50
2022-08-21T07:55:50.098Z,2.00
2022-08-21T07:58:18.142Z,1.88
2022-08-21T08:00:45.813Z,1.60
2022-08-21T08:03:13.415Z,2.22
2022-08-21T08:05:42.931Z,4.38
2022-08-21T08:08:10.580Z,3.53
2022-08-21T08:10:40.220Z,2.20
2022-08-21T08:13:10.528Z,2.15
2022-08-21T08:15:38.872Z,2.22
2022-08-21T08:18:06.719Z,3.97
2022-08-21T08:20:34.510Z,3.72
2022-08-21T08:23:02.349Z,3.28
2022-08-21T08:25:32.773Z,1.95
2022-08-21T08:28:16.965Z,1.38
2022-08-21T08:30:45.800Z,1.77
2022-08-21T08:33:13.463Z,2.42
2022-08-21T08:35:48.528Z,3.42
2022-08-21T08:38:19.747Z,2.38
2022-08-21T08:40:55.567Z,2.17
2022-08-21T08:43:24.683Z,1.75
2022-08-21T08:45:56.500Z,1.27
2022-08-21T08:48:38.367Z,1.30
2022-08-21T08:51:10.670Z,1.30
2022-08-21T08:53:50.159Z,1.92
2022-08-21T08:56:23.304Z,2.08
2022-08-21T08:58:54.452Z,1.48
2022-08-21T09:01:22.439Z,1.70
2022-08-21T09:03:52.802Z,2.95
2022-08-21T09:06:30.042Z,2.17
2022-08-21T09:09:13.259Z,2.15
2022-08-21T09:11:50.576Z,1.83
2022-08-21T09:14:29.218Z,1.55
2022-08-21T09:17:03.669Z,2.00
2022-08-21T09:19:51.470Z,2.45
2022-08-21T09:22:25.490Z,1.95
2022-08-21T09:25:04.552Z,2.80
2022-08-21T09:27:33.715Z,1.55
2022-08-21T09:30:03.515Z,2.00
2022-08-21T09:32:37.861Z,1.38
2022-08-21T09:35:09.434Z,1.60
2022-08-21T09:37:49.311Z,1.63
2022-08-21T09:40:25.319Z,1.75
2022-08-21T09:42:57.786Z,1.65
2022-08-21T09:45:27.400Z,2.00
2022-08-21T09:48:11.850Z,2.17
2022-08-21T09:50:39.733Z,2.10
2022-08-21T09:53:18.397Z,1.90
2022-08-21T09:56:08.919Z,1.50
2022-08-21T09:58:38.868Z,1.80
2022-08-21T10:01:14.183Z,1.42
2022-08-21T10:03:42.103Z,2.53
2022-08-21T10:06:12.804Z,3.92
2022-08-21T10:08:43.026Z,3.97
2022-08-21T10:11:13.863Z,2.88
2022-08-21T10:13:52.019Z,2.40
2022-08-21T10:16:33.628Z,2.45
2022-08-21T10:19:21.979Z,1.63
2022-08-21T10:22:04.316Z,1.80
2022-08-21T10:24:35.248Z,2.00
2022-08-21T10:27:22.510Z,1.48
2022-08-21T10:29:57.718Z,1.60
2022-08-21T10:32:40.915Z,2.00
2022-08-21T10:35:15.049Z,1.20
2022-08-21T10:37:58.332Z,1.75
2022-08-21T10:40:33.648Z,1.50
2022-08-21T10:43:14.718Z,1.42
2022-08-21T10:45:53.623Z,1.42
2022-08-21T10:48:29.651Z,1.65
2022-08-21T10:51:06.477Z,1.88
2022-08-21T10:53:43.790Z,1.83
2022-08-21T10:56:17.844Z,1.60
2022-08-21T10:58:55.604Z,1.75
2022-08-21T11:01:29.882Z,1.58
2022-08-21T11:04:13.516Z,1.92
2022-08-21T11:06:52.343Z,2.05
2022-08-21T11:09:23.664Z,1.77
2022-08-21T11:11:59.303Z,1.42
2022-08-21T11:14:50.489Z,2.10
2022-08-21T11:17:27.188Z,1.50
2022-08-21T11:20:07.693Z,1.58
2022-08-21T11:22:42.224Z,1.50
2022-08-21T11:25:15.999Z,1.20
2022-08-21T11:27:48.404Z,1.00
2022-08-21T11:30:17.019Z,1.50
2022-08-21T11:32:59.575Z,1.60
2022-08-21T11:35:35.549Z,1.35
2022-08-21T11:38:21.541Z,1.20
2022-08-21T11:41:05.536Z,1.27
2022-08-21T11:43:40.516Z,1.33
2022-08-21T11:46:27.319Z,1.00
2022-08-21T11:49:06.377Z,1.15
2022-08-21T11:51:41.012Z,1.30
2022-08-21T11:54:17.833Z,1.80
2022-08-21T11:56:49.760Z,1.50
2022-08-21T11:59:22.631Z,1.70
2022-08-21T12:01:53.609Z,1.20
2022-08-21T12:04:27.021Z,1.42
2022-08-21T12:06:56.294Z,1.88
2022-08-21T12:09:35.270Z,1.20
2022-08-21T12:12:07.395Z,1.27
2022-08-21T12:14:41.444Z,1.55
2022-08-21T12:17:20.358Z,1.35
2022-08-21T12:20:01.506Z,1.60
2022-08-21T12:22:41.905Z,1.20
2022-08-21T12:25:12.571Z,1.17
2022-08-21T12:27:47.943Z,1.17
2022-08-21T12:30:34.536Z,1.25
2022-08-21T12:33:04.846Z,1.60
2022-08-21T12:35:44.494Z,1.33
2022-08-21T12:38:19.621Z,1.17
2022-08-21T12:40:52.182Z,1.65
2022-08-21T12:43:24.640Z,1.55
2022-08-21T12:45:53.394Z,1.40
2022-08-21T12:48:25.889Z,1.77
2022-08-21T12:50:57.514Z,1.20
2022-08-21T12:53:32.261Z,1.38
2022-08-21T12:56:04.551Z,1.55
2022-08-21T12:58:33.870Z,1.50
2022-08-21T13:01:06.602Z,1.85
2022-08-21T13:03:37.951Z,1.45
2022-08-21T13:06:07.311Z,1.50
2022-08-21T13:08:41.698Z,1.60
2022-08-21T13:11:14.854Z,1.33
2022-08-21T13:13:47.048Z,1.25
2022-08-21T13:16:24.457Z,1.52
2022-08-21T13:18:56.244Z,1.63
2022-08-21T13:21:30.498Z,1.30
2022-08-21T13:24:32.059Z,1.23
2022-08-21T13:27:03.189Z,1.30
2022-08-21T13:29:35.401Z,1.23
2022-08-21T13:32:08.797Z,1.23
2022-08-21T13:34:38.634Z,1.25
2022-08-21T13:37:10.218Z,1.17
2022-08-21T13:39:40.388Z,1.70
2022-08-21T13:42:14.964Z,2.00
2022-08-21T13:44:44.443Z,1.40
2022-08-21T13:47:14.459Z,1.10
2022-08-21T13:49:45.247Z,0.93
2022-08-21T13:52:18.480Z,1.30
2022-08-21T13:54:55.227Z,1.30
2022-08-21T13:57:27.890Z,1.02
2022-08-21T14:00:12.681Z,1.92
2022-08-21T14:02:42.686Z,1.63
2022-08-21T14:05:18.328Z,1.50
2022-08-21T14:07:47.924Z,1.58
2022-08-21T14:10:22.078Z,2.38
2022-08-21T14:12:53.135Z,1.30
2022-08-21T14:15:26.154Z,1.52
2022-08-21T14:17:54.198Z,1.58
2022-08-21T14:20:30.925Z,2.47
2022-08-21T14:22:58.843Z,1.52
2022-08-21T14:25:43.776Z,1.70
2022-08-21T14:28:28.087Z,2.00
2022-08-21T14:30:57.879Z,2.65
2022-08-21T14:33:29.645Z,2.45
2022-08-21T14:35:58.978Z,1.85
2022-08-21T14:38:29.025Z,2.53
2022-08-21T14:41:02.402Z,2.25
2022-08-21T14:43:30.663Z,1.98
2022-08-21T14:45:58.831Z,2.08
2022-08-21T14:48:26.452Z,2.33
2022-08-21T14:50:58.361Z,2.60
2022-08-21T14:53:27.480Z,2.13
2022-08-21T14:56:07.805Z,2.20
2022-08-21T14:58:40.079Z,1.70
2022-08-21T15:01:09.457Z,1.98
2022-08-21T15:03:37.566Z,1.70
2022-08-21T15:06:07.182Z,2.20
2022-08-21T15:08:38.406Z,1.90
2022-08-21T15:11:12.432Z,2.35
2022-08-21T15:13:43.861Z,2.10
2022-08-21T15:16:13.967Z,2.65
2022-08-21T15:18:43.691Z,2.88
2022-08-21T15:21:11.495Z,2.33
2022-08-21T15:23:39.711Z,2.70
2022-08-21T15:26:07.808Z,2.60
2022-08-21T15:28:37.699Z,2.20
2022-08-21T15:31:07.562Z,2.45
2022-08-21T15:33:35.687Z,2.72
2022-08-21T15:36:04.175Z,2.42
2022-08-21T15:38:31.977Z,2.70
2022-08-21T15:40:59.918Z,2.80
2022-08-21T15:43:31.030Z,3.20
2022-08-21T15:46:00.985Z,3.00
2022-08-21T15:48:30.923Z,3.17
2022-08-21T15:50:59.777Z,3.05
2022-08-21T15:53:27.663Z,3.17
2022-08-21T15:55:55.735Z,3.15
2022-08-21T15:58:23.848Z,2.90
2022-08-21T16:00:51.645Z,3.10
2022-08-21T16:03:22.574Z,3.05
2022-08-21T16:05:53.399Z,3.10
2022-08-21T16:08:21.581Z,2.63
2022-08-21T16:10:49.743Z,3.13
2022-08-21T16:13:25.616Z,3.35
2022-08-21T16:15:54.365Z,3.28
2022-08-21T16:18:23.884Z,3.03
2022-08-21T16:20:54.125Z,3.00
2022-08-21T16:23:22.664Z,3.50
2022-08-21T16:25:50.783Z,2.92
2022-08-21T16:28:20.905Z,2.90
2022-08-21T16:30:51.153Z,3.00
2022-08-21T16:33:34.985Z,3.30
2022-08-21T16:36:07.676Z,3.10
2022-08-21T16:38:38.155Z,3.22
2022-08-21T16:41:08.397Z,3.53
2022-08-21T16:43:36.582Z,3.13
2022-08-21T16:46:04.393Z,3.33
2022-08-21T16:48:32.187Z,3.35
2022-08-21T16:51:00.074Z,3.58
2022-08-21T16:53:29.107Z,3.22
2022-08-21T16:55:57.032Z,3.08
2022-08-21T16:58:28.064Z,3.67
2022-08-21T17:00:56.266Z,3.67
2022-08-21T17:03:30.604Z,3.90
2022-08-21T17:05:58.374Z,3.80
2022-08-21T17:08:26.203Z,3.35
2022-08-21T17:10:56.041Z,3.45
2022-08-21T17:13:24.226Z,3.67
2022-08-21T17:15:52.661Z,3.67
2022-08-21T17:18:24.030Z,3.67
2022-08-21T17:20:52.252Z,4.60
2022-08-21T17:23:20.769Z,3.17
2022-08-21T17:25:53.658Z,3.20
2022-08-21T17:28:26.532Z,3.80
2022-08-21T17:30:56.640Z,6.00
2022-08-21T17:33:25.871Z,3.78
2022-08-21T17:35:54.806Z,3.65
2022-08-21T17:38:22.510Z,3.40
2022-08-21T17:40:50.698Z,3.78
2022-08-21T17:43:18.750Z,4.45
2022-08-21T17:45:48.164Z,3.88
2022-08-21T17:48:15.992Z,4.32
2022-08-21T17:50:43.828Z,3.45
2022-08-21T17:53:11.648Z,4.15
2022-08-21T17:55:41.442Z,4.22
2022-08-21T17:58:10.358Z,4.43
2022-08-21T18:00:38.489Z,3.95
2022-08-21T18:03:14.685Z,4.03
2022-08-21T18:05:42.610Z,4.13
2022-08-21T18:08:10.621Z,4.25
2022-08-21T18:10:41.067Z,3.88
2022-08-21T18:13:12.039Z,5.00
2022-08-21T18:15:40.315Z,3.90
2022-08-21T18:18:13.515Z,4.38
2022-08-21T18:20:49.925Z,4.00
2022-08-21T18:23:43.245Z,4.22
2022-08-21T18:26:19.613Z,4.18
2022-08-21T18:28:50.750Z,4.20
2022-08-21T18:31:27.321Z,4.30
2022-08-21T18:34:20.971Z,3.78
2022-08-21T18:36:53.569Z,3.95
2022-08-21T18:39:36.317Z,4.28
2022-08-21T18:42:14.673Z,4.32
2022-08-21T18:44:48.901Z,3.78
2022-08-21T18:47:27.769Z,4.28
2022-08-21T18:50:13.258Z,4.82
2022-08-21T18:52:54.531Z,3.83
2022-08-21T18:56:06.551Z,4.47
2022-08-21T18:59:35.399Z,4.35
2022-08-21T19:02:11.474Z,3.95
2022-08-21T19:04:44.688Z,3.95
2022-08-21T19:07:15.077Z,4.03
2022-08-21T19:09:56.959Z,4.68
2022-08-21T19:12:33.438Z,3.67
2022-08-21T19:15:01.474Z,3.78
2022-08-21T19:17:30.798Z,4.07
2022-08-21T19:20:04.765Z,4.10
2022-08-21T19:22:33.840Z,3.92
2022-08-21T19:25:01.553Z,3.88
2022-08-21T19:27:29.850Z,3.50
2022-08-21T19:29:57.781Z,4.07
2022-08-21T19:32:28.777Z,3.85
2022-08-21T19:34:56.439Z,3.05
2022-08-21T19:37:25.976Z,8.02
2022-08-21T19:39:55.493Z,6.43
2022-08-21T19:42:25.058Z,3.95
2022-08-21T19:45:13.481Z,3.83
2022-08-21T19:47:46.450Z,5.47
2022-08-21T19:50:17.936Z,3.78
2022-08-21T19:52:51.624Z,3.63
2022-08-21T19:55:23.207Z,3.75
2022-08-21T19:57:51.477Z,3.70
2022-08-21T20:00:19.536Z,3.80
2022-08-21T20:02:48.129Z,4.53
2022-08-21T20:05:18.197Z,4.22
2022-08-21T20:07:46.542Z,3.72
2022-08-21T20:10:14.499Z,3.53
2022-08-21T20:12:47.060Z,3.20
2022-08-21T20:15:20.563Z,3.28
2022-08-21T20:17:48.821Z,3.55
2022-08-21T20:20:16.934Z,3.97
2022-08-21T20:22:44.549Z,2.97
2022-08-21T20:25:12.488Z,3.72
2022-08-21T20:27:42.869Z,3.17
2022-08-21T20:30:11.613Z,3.00
2022-08-21T20:32:39.740Z,3.40
2022-08-21T20:35:12.332Z,3.45
2022-08-21T20:37:41.338Z,3.00
2022-08-21T20:40:13.437Z,3.40
2022-08-21T20:42:47.191Z,3.50
2022-08-21T20:45:21.194Z,4.03
2022-08-21T20:47:52.671Z,3.92
2022-08-21T20:50:23.179Z,3.83
2022-08-21T20:52:54.275Z,3.25
2022-08-21T20:55:29.043Z,4.50
2022-08-21T20:58:04.675Z,3.72
2022-08-21T21:00:36.853Z,3.72
2022-08-21T21:03:10.631Z,3.67
2022-08-21T21:05:44.153Z,4.85
2022-08-21T21:08:19.591Z,3.83
2022-08-21T21:10:54.927Z,3.50
2022-08-21T21:13:30.032Z,3.60
2022-08-21T21:16:03.738Z,3.53
2022-08-21T21:18:37.372Z,3.60
2022-08-21T21:21:16.564Z,3.58
2022-08-21T21:23:50.449Z,3.67
2022-08-21T21:26:22.966Z,2.67
2022-08-21T21:29:09.929Z,3.28
2022-08-21T21:31:38.682Z,3.53
2022-08-21T21:34:06.569Z,2.92
2022-08-21T21:36:43.757Z,3.70
2022-08-21T21:39:17.958Z,3.10
2022-08-21T21:41:50.774Z,2.92
2022-08-21T21:44:47.656Z,3.00
2022-08-21T21:47:31.581Z,3.00
2022-08-21T21:50:07.481Z,3.60
2022-08-21T21:53:00.246Z,3.30
2022-08-21T21:55:47.777Z,2.67
2022-08-21T21:58:49.128Z,3.08
2022-08-21T22:01:27.545Z,3.35
2022-08-21T22:04:03.760Z,3.13
2022-08-21T22:06:40.424Z,3.38
2022-08-21T22:09:17.539Z,4.32
2022-08-21T22:11:58.831Z,3.92
2022-08-21T22:14:35.422Z,4.00
2022-08-21T22:17:10.224Z,3.50
2022-08-21T22:19:42.508Z,3.50
2022-08-21T22:22:15.931Z,3.90
2022-08-21T22:24:49.622Z,4.65
2022-08-21T22:27:22.541Z,3.83
2022-08-21T22:29:53.318Z,4.32
2022-08-21T22:32:30.340Z,4.75
2022-08-21T22:35:15.566Z,4.78
2022-08-21T22:37:47.671Z,4.03
2022-08-21T22:40:24.151Z,4.53
2022-08-21T22:43:02.862Z,4.22
2022-08-21T22:45:30.722Z,4.07
2022-08-21T22:48:11.290Z,4.55
2022-08-21T22:50:57.261Z,5.15
2022-08-21T22:53:29.512Z,5.13
2022-08-21T22:56:00.506Z,5.50
2022-08-21T22:58:30.653Z,4.90
